createdAt,value
2023-04-23T00:01:57.315Z,8.67
2023-04-23T00:04:26.022Z,8.68
2023-04-23T00:06:53.025Z,8.63
2023-04-23T00:09:22.605Z,8.55
2023-04-23T00:11:49.329Z,8.51
2023-04-23T00:14:16.037Z,8.42
2023-04-23T00:16:42.940Z,8.35
2023-04-23T00:19:10.673Z,8.31
2023-04-23T00:21:37.213Z,8.31
2023-04-23T00:24:03.782Z,8.19
2023-04-23T00:26:30.259Z,8.07
2023-04-23T00:28:56.771Z,8.01
2023-04-23T00:31:23.506Z,8.00
2023-04-23T00:33:50.248Z,8.09
2023-04-23T00:36:16.799Z,8.14
2023-04-23T00:38:43.309Z,8.14
2023-04-23T00:41:10.155Z,8.14
2023-04-23T00:43:37.142Z,8.11
2023-04-23T00:46:03.976Z,8.12
2023-04-23T00:48:30.696Z,8.09
2023-04-23T00:51:03.346Z,8.07
2023-04-23T00:53:29.934Z,8.04
2023-04-23T00:55:57.280Z,8.01
2023-04-23T00:58:23.894Z,7.99
2023-04-23T01:00:50.559Z,8.00
2023-04-23T01:03:17.299Z,8.01
2023-04-23T01:05:44.111Z,8.06
2023-04-23T01:08:15.572Z,8.05
2023-04-23T01:10:45.801Z,8.09
2023-04-23T01:13:13.376Z,8.05
2023-04-23T01:15:40.000Z,8.01
2023-04-23T01:18:06.654Z,7.91
2023-04-23T01:20:36.010Z,7.91
2023-04-23T01:23:05.828Z,7.81
2023-04-23T01:25:32.499Z,7.79
2023-04-23T01:27:59.382Z,7.76
2023-04-23T01:30:27.284Z,7.67
2023-04-23T01:32:57.678Z,7.61
2023-04-23T01:35:25.232Z,7.57
2023-04-23T01:37:53.630Z,7.49
2023-04-23T01:40:21.332Z,7.38
2023-04-23T01:42:48.320Z,7.24
2023-04-23T01:45:14.850Z,7.16
2023-04-23T01:47:42.005Z,7.18
2023-04-23T01:50:09.652Z,7.20
2023-04-23T01:52:36.311Z,7.19
2023-04-23T01:55:03.240Z,7.18
2023-04-23T01:57:29.835Z,7.23
2023-04-23T02:00:05.222Z,7.29
2023-04-23T02:02:31.786Z,7.29
2023-04-23T02:05:00.721Z,7.34
2023-04-23T02:07:27.309Z,7.31
2023-04-23T02:09:53.829Z,7.32
2023-04-23T02:12:20.309Z,7.33
2023-04-23T02:14:46.846Z,7.31
2023-04-23T02:17:13.320Z,7.29
2023-04-23T02:19:39.790Z,7.28
2023-04-23T02:22:06.321Z,7.28
2023-04-23T02:24:33.114Z,7.25
2023-04-23T02:26:59.628Z,7.21
2023-04-23T02:29:26.132Z,7.16
2023-04-23T02:31:52.841Z,7.11
2023-04-23T02:34:19.458Z,7.02
2023-04-23T02:36:45.996Z,7.01
2023-04-23T02:39:12.460Z,6.97
2023-04-23T02:41:38.902Z,6.85
2023-04-23T02:44:05.418Z,6.85
2023-04-23T02:46:32.028Z,6.80
2023-04-23T02:48:58.629Z,6.46
2023-04-23T02:51:25.274Z,6.38
2023-04-23T02:53:51.799Z,6.41
2023-04-23T02:56:18.272Z,6.45
2023-04-23T02:58:44.792Z,6.54
2023-04-23T03:01:11.398Z,6.56
2023-04-23T03:03:38.215Z,6.60
2023-04-23T03:06:05.477Z,6.59
2023-04-23T03:08:32.056Z,6.57
2023-04-23T03:10:58.552Z,6.59
2023-04-23T03:13:26.339Z,6.58
2023-04-23T03:15:53.380Z,6.59
2023-04-23T03:18:20.667Z,6.57
2023-04-23T03:20:47.380Z,6.48
2023-04-23T03:23:13.862Z,6.44
2023-04-23T03:25:40.394Z,6.40
2023-04-23T03:28:06.890Z,6.33
2023-04-23T03:30:33.516Z,6.26
2023-04-23T03:33:00.479Z,6.26
2023-04-23T03:35:27.032Z,6.28
2023-04-23T03:37:53.573Z,6.30
2023-04-23T03:40:21.162Z,6.29
2023-04-23T03:42:48.000Z,6.29
2023-04-23T03:45:15.642Z,6.26
2023-04-23T03:47:42.658Z,6.26
2023-04-23T03:50:09.794Z,6.24
2023-04-23T03:52:36.347Z,6.22
2023-04-23T03:55:02.897Z,6.23
2023-04-23T03:57:29.528Z,6.17
2023-04-23T03:59:56.023Z,6.17
2023-04-23T04:02:22.804Z,6.16
2023-04-23T04:04:49.630Z,6.18
2023-04-23T04:07:16.247Z,6.21
2023-04-23T04:09:42.772Z,6.31
2023-04-23T04:12:09.330Z,6.39
2023-04-23T04:14:35.825Z,6.58
2023-04-23T04:17:02.308Z,6.62
2023-04-23T04:19:28.775Z,6.57
2023-04-23T04:21:55.209Z,6.52
2023-04-23T04:24:23.143Z,6.58
2023-04-23T04:26:50.889Z,6.51
2023-04-23T04:29:17.402Z,6.33
2023-04-23T04:31:44.134Z,6.18
2023-04-23T04:34:10.686Z,6.48
2023-04-23T04:36:37.171Z,7.17
2023-04-23T04:39:03.774Z,7.42
2023-04-23T04:41:30.337Z,7.41
2023-04-23T04:43:56.849Z,7.35
2023-04-23T04:46:23.383Z,7.34
2023-04-23T04:48:50.147Z,7.78
2023-04-23T04:51:16.720Z,8.47
2023-04-23T04:53:43.510Z,9.20
2023-04-23T04:56:09.999Z,10.01
2023-04-23T04:58:36.488Z,10.65
2023-04-23T05:01:03.179Z,11.31
2023-04-23T05:03:29.909Z,11.74
2023-04-23T05:05:56.596Z,12.07
2023-04-23T05:08:23.146Z,12.42
2023-04-23T05:10:49.981Z,12.70
2023-04-23T05:13:17.362Z,12.71
2023-04-23T05:15:43.857Z,13.29
2023-04-23T05:18:10.832Z,13.73
2023-04-23T05:20:37.834Z,14.12
2023-04-23T05:23:04.404Z,14.04
2023-04-23T05:25:32.724Z,14.32
2023-04-23T05:27:59.235Z,14.55
2023-04-23T05:30:25.733Z,14.40
2023-04-23T05:32:52.284Z,14.90
2023-04-23T05:35:18.913Z,14.70
2023-04-23T05:37:45.440Z,13.92
2023-04-23T05:40:12.180Z,14.29
2023-04-23T05:42:38.675Z,14.68
2023-04-23T05:45:08.054Z,14.37
2023-04-23T05:47:35.504Z,13.77
2023-04-23T05:50:02.017Z,13.31
2023-04-23T05:52:28.500Z,12.84
2023-04-23T05:54:55.029Z,12.68
2023-04-23T05:57:21.502Z,12.89
2023-04-23T05:59:47.993Z,13.13
2023-04-23T06:02:15.027Z,13.60
2023-04-23T06:04:41.864Z,14.05
2023-04-23T06:07:08.742Z,14.78
2023-04-23T06:09:35.256Z,15.36
2023-04-23T06:12:02.304Z,15.60
2023-04-23T06:14:28.687Z,16.10
2023-04-23T06:16:55.235Z,16.46
2023-04-23T06:19:21.753Z,16.61
2023-04-23T06:21:48.260Z,16.50
2023-04-23T06:24:14.759Z,15.67
2023-04-23T06:26:41.250Z,15.69
2023-04-23T06:29:07.747Z,15.45
2023-04-23T06:31:34.306Z,15.72
2023-04-23T06:34:00.865Z,15.68
2023-04-23T06:36:27.354Z,16.08
2023-04-23T06:38:53.891Z,16.36
2023-04-23T06:41:20.515Z,16.98
2023-04-23T06:43:46.996Z,16.38
2023-04-23T06:46:13.864Z,16.79
2023-04-23T06:48:40.349Z,17.79
2023-04-23T06:51:06.985Z,17.85
2023-04-23T06:53:33.930Z,17.81
2023-04-23T06:56:00.296Z,17.62
2023-04-23T06:58:26.774Z,17.46
2023-04-23T07:00:53.649Z,17.41
2023-04-23T07:03:20.174Z,18.10
2023-04-23T07:05:46.700Z,17.69
2023-04-23T07:08:13.410Z,17.81
2023-04-23T07:10:40.013Z,16.93
2023-04-23T07:13:06.494Z,17.08
2023-04-23T07:15:33.039Z,17.37
2023-04-23T07:17:59.805Z,17.65
2023-04-23T07:20:26.333Z,18.06
2023-04-23T07:22:52.955Z,18.52
2023-04-23T07:25:19.469Z,18.76
2023-04-23T07:27:45.970Z,19.12
2023-04-23T07:30:13.095Z,19.81
2023-04-23T07:32:39.787Z,19.04
2023-04-23T07:35:06.862Z,19.14
2023-04-23T07:37:33.389Z,19.33
2023-04-23T07:39:59.842Z,19.37
2023-04-23T07:42:26.341Z,20.88
2023-04-23T07:44:52.824Z,20.77
2023-04-23T07:47:19.367Z,20.91
2023-04-23T07:49:45.890Z,20.98
2023-04-23T07:52:12.420Z,20.60
2023-04-23T07:54:39.174Z,20.48
2023-04-23T07:57:05.675Z,19.98
2023-04-23T07:59:32.219Z,20.77
2023-04-23T08:01:58.748Z,21.55
2023-04-23T08:04:25.642Z,21.43
2023-04-23T08:06:52.310Z,22.04
2023-04-23T08:09:18.859Z,22.90
2023-04-23T08:11:45.341Z,23.12
2023-04-23T08:14:11.884Z,23.59
2023-04-23T08:16:39.135Z,23.85
2023-04-23T08:19:06.458Z,24.03
2023-04-23T08:21:33.772Z,23.85
2023-04-23T08:24:00.444Z,24.00
2023-04-23T08:26:26.803Z,24.21
2023-04-23T08:28:53.312Z,23.71
2023-04-23T08:31:26.297Z,23.61
2023-04-23T08:33:54.251Z,24.01
2023-04-23T08:36:21.008Z,23.68
2023-04-23T08:38:47.520Z,23.49
2023-04-23T08:41:14.851Z,24.10
2023-04-23T08:43:50.411Z,24.44
2023-04-23T08:46:18.346Z,23.47
2023-04-23T08:48:45.572Z,22.78
2023-04-23T08:51:17.630Z,23.09
2023-04-23T08:53:45.408Z,22.84
2023-04-23T08:56:13.701Z,22.63
2023-04-23T08:58:41.763Z,22.89
2023-04-23T09:01:09.229Z,22.39
2023-04-23T09:03:36.696Z,23.89
2023-04-23T09:06:03.759Z,24.78
2023-04-23T09:08:30.948Z,24.23
2023-04-23T09:11:01.016Z,23.85
2023-04-23T09:13:28.169Z,22.45
2023-04-23T09:15:54.664Z,23.17
2023-04-23T09:18:21.045Z,24.25
2023-04-23T09:20:47.666Z,24.16
2023-04-23T09:23:15.328Z,25.15
2023-04-23T09:25:42.235Z,25.56
2023-04-23T09:28:08.983Z,25.65
2023-04-23T09:30:45.499Z,25.46
2023-04-23T09:33:13.218Z,24.83
2023-04-23T09:35:40.821Z,25.55
2023-04-23T09:38:07.915Z,24.40
2023-04-23T09:40:34.512Z,24.37
2023-04-23T09:43:04.180Z,24.25
2023-04-23T09:45:31.050Z,24.38
2023-04-23T09:47:59.052Z,24.50
2023-04-23T09:50:33.913Z,24.39
2023-04-23T09:53:00.522Z,24.90
2023-04-23T09:55:35.046Z,25.07
2023-04-23T09:58:02.882Z,24.75
2023-04-23T10:00:33.999Z,24.37
2023-04-23T10:03:00.896Z,24.05
2023-04-23T10:05:34.206Z,24.12
2023-04-23T10:08:12.652Z,25.23
2023-04-23T10:10:51.401Z,25.23
2023-04-23T10:13:24.089Z,26.26
2023-04-23T10:15:51.316Z,25.96
2023-04-23T10:18:20.374Z,25.47
2023-04-23T10:20:48.458Z,24.63
2023-04-23T10:23:17.271Z,24.08
2023-04-23T10:25:44.950Z,24.18
2023-04-23T10:28:13.594Z,23.62
2023-04-23T10:30:42.049Z,23.55
2023-04-23T10:33:18.874Z,23.90
2023-04-23T10:35:57.227Z,25.00
2023-04-23T10:38:25.318Z,24.92
2023-04-23T10:40:55.287Z,25.03
2023-04-23T10:43:22.341Z,24.23
2023-04-23T10:45:49.801Z,23.35
2023-04-23T10:48:16.286Z,23.24
2023-04-23T10:50:58.578Z,23.39
2023-04-23T10:53:31.846Z,24.69
2023-04-23T10:56:09.029Z,25.68
2023-04-23T10:58:49.029Z,25.21
2023-04-23T11:01:17.416Z,25.73
2023-04-23T11:03:45.153Z,25.56
2023-04-23T11:06:39.494Z,25.06
2023-04-23T11:09:28.681Z,25.15
2023-04-23T11:11:55.410Z,25.34
2023-04-23T11:14:33.970Z,24.33
2023-04-23T11:17:00.544Z,23.45
2023-04-23T11:19:27.030Z,23.78
2023-04-23T11:21:56.986Z,25.04
2023-04-23T11:24:24.141Z,25.86
2023-04-23T11:26:54.126Z,26.15
2023-04-23T11:29:22.537Z,26.71
2023-04-23T11:32:01.551Z,25.49
2023-04-23T11:34:29.475Z,25.44
2023-04-23T11:36:59.166Z,25.34
2023-04-23T11:39:25.729Z,25.57
2023-04-23T11:41:52.592Z,24.71
2023-04-23T11:44:22.882Z,25.01
2023-04-23T11:46:50.077Z,24.54
2023-04-23T11:49:20.525Z,24.60
2023-04-23T11:51:47.944Z,24.02
2023-04-23T11:54:14.855Z,24.12
2023-04-23T11:56:41.984Z,24.43
2023-04-23T11:59:08.902Z,23.57
2023-04-23T12:01:49.051Z,24.07
2023-04-23T12:04:22.402Z,23.41
2023-04-23T12:06:51.026Z,23.05
2023-04-23T12:09:20.207Z,23.72
2023-04-23T12:11:47.513Z,23.52
2023-04-23T12:14:15.195Z,23.80
2023-04-23T12:16:44.030Z,23.76
2023-04-23T12:19:16.009Z,23.74
2023-04-23T12:21:48.499Z,23.71
2023-04-23T12:24:15.562Z,24.05
2023-04-23T12:26:42.722Z,24.17
2023-04-23T12:29:09.281Z,24.19
2023-04-23T12:31:37.188Z,24.84
2023-04-23T12:34:04.530Z,25.12
2023-04-23T12:36:31.967Z,24.41
2023-04-23T12:39:23.207Z,24.30
2023-04-23T12:41:54.967Z,24.24
2023-04-23T12:44:21.957Z,23.55
2023-04-23T12:46:57.847Z,23.88
2023-04-23T12:49:25.891Z,23.79
2023-04-23T12:51:53.307Z,23.60
2023-04-23T12:54:20.213Z,23.47
2023-04-23T12:56:46.706Z,22.98
2023-04-23T12:59:13.067Z,22.64
2023-04-23T13:01:39.707Z,22.45
2023-04-23T13:04:06.449Z,22.29
2023-04-23T13:06:33.227Z,22.10
2023-04-23T13:08:59.773Z,22.55
2023-04-23T13:11:26.128Z,22.74
2023-04-23T13:13:52.736Z,22.90
2023-04-23T13:16:19.220Z,22.77
2023-04-23T13:18:45.793Z,22.83
2023-04-23T13:21:12.171Z,23.01
2023-04-23T13:23:38.695Z,23.21
2023-04-23T13:26:05.127Z,23.44
2023-04-23T13:28:31.652Z,23.59
2023-04-23T13:30:58.119Z,23.43
2023-04-23T13:33:24.608Z,23.26
2023-04-23T13:35:51.086Z,23.45
2023-04-23T13:38:17.633Z,23.60
2023-04-23T13:40:44.023Z,23.54
2023-04-23T13:43:10.545Z,23.12
2023-04-23T13:45:37.013Z,23.51
2023-04-23T13:48:03.626Z,23.53
2023-04-23T13:50:29.999Z,23.49
2023-04-23T13:52:56.499Z,23.86
2023-04-23T13:55:22.922Z,23.71
2023-04-23T13:57:49.496Z,23.52
2023-04-23T14:00:16.115Z,22.88
2023-04-23T14:02:42.796Z,23.03
2023-04-23T14:05:09.764Z,23.16
2023-04-23T14:07:36.304Z,22.87
2023-04-23T14:10:02.690Z,22.70
2023-04-23T14:12:29.255Z,22.89
2023-04-23T14:14:55.775Z,22.91
2023-04-23T14:17:22.266Z,22.78
2023-04-23T14:19:48.758Z,22.77
2023-04-23T14:22:15.242Z,22.76
2023-04-23T14:24:49.542Z,23.03
2023-04-23T14:27:16.096Z,22.43
2023-04-23T14:29:46.537Z,22.56
2023-04-23T14:32:13.027Z,22.60
2023-04-23T14:34:39.574Z,22.69
2023-04-23T14:37:05.959Z,22.42
2023-04-23T14:39:33.851Z,22.36
2023-04-23T14:42:00.363Z,22.51
2023-04-23T14:44:26.891Z,22.46
2023-04-23T14:46:53.435Z,22.56
2023-04-23T14:49:20.247Z,22.46
2023-04-23T14:51:48.281Z,22.41
2023-04-23T14:54:14.813Z,22.46
2023-04-23T14:56:41.329Z,22.35
2023-04-23T14:59:07.842Z,22.32
2023-04-23T15:01:34.465Z,22.18
2023-04-23T15:04:01.326Z,22.18
2023-04-23T15:06:27.955Z,22.25
2023-04-23T15:08:54.476Z,22.23
2023-04-23T15:11:20.911Z,22.07
2023-04-23T15:14:01.009Z,22.25
2023-04-23T15:16:47.273Z,21.98
2023-04-23T15:19:15.250Z,21.82
2023-04-23T15:21:41.630Z,21.74
2023-04-23T15:24:08.150Z,21.81
2023-04-23T15:26:34.908Z,21.68
2023-04-23T15:29:01.491Z,21.58
2023-04-23T15:31:28.046Z,21.74
2023-04-23T15:33:54.592Z,21.71
2023-04-23T15:36:21.105Z,21.87
2023-04-23T15:38:47.595Z,21.62
2023-04-23T15:41:14.164Z,21.62
2023-04-23T15:43:40.728Z,21.56
2023-04-23T15:46:07.290Z,21.66
2023-04-23T15:48:33.800Z,21.65
2023-04-23T15:51:00.333Z,21.45
2023-04-23T15:53:27.824Z,21.33
2023-04-23T15:55:54.355Z,21.27
2023-04-23T15:58:21.232Z,21.05
2023-04-23T16:00:47.804Z,20.99
2023-04-23T16:03:14.927Z,21.02
2023-04-23T16:05:42.018Z,20.83
2023-04-23T16:08:08.987Z,20.71
2023-04-23T16:10:37.047Z,20.72
2023-04-23T16:13:10.182Z,20.58
2023-04-23T16:15:36.580Z,20.59
2023-04-23T16:18:03.269Z,20.49
2023-04-23T16:20:29.729Z,20.41
2023-04-23T16:22:56.246Z,20.55
2023-04-23T16:25:22.942Z,20.48
2023-04-23T16:27:49.480Z,20.39
2023-04-23T16:30:16.104Z,20.25
2023-04-23T16:32:43.732Z,20.14
2023-04-23T16:35:10.560Z,20.06
2023-04-23T16:37:37.031Z,20.01
2023-04-23T16:40:03.847Z,20.00
2023-04-23T16:42:30.352Z,19.85
2023-04-23T16:44:56.836Z,19.79
2023-04-23T16:47:23.454Z,19.65
2023-04-23T16:49:50.025Z,19.60
2023-04-23T16:52:16.558Z,19.58
2023-04-23T16:54:43.373Z,19.52
2023-04-23T16:57:10.294Z,19.57
2023-04-23T16:59:36.844Z,19.33
2023-04-23T17:02:03.482Z,19.30
2023-04-23T17:04:30.002Z,19.27
2023-04-23T17:06:56.564Z,19.14
2023-04-23T17:09:23.052Z,19.03
2023-04-23T17:11:49.550Z,19.01
2023-04-23T17:14:16.026Z,18.95
2023-04-23T17:16:42.538Z,18.87
2023-04-23T17:19:09.086Z,18.74
2023-04-23T17:21:35.619Z,18.67
2023-04-23T17:24:02.165Z,18.52
2023-04-23T17:26:28.816Z,18.34
2023-04-23T17:28:55.266Z,18.07
2023-04-23T17:31:21.889Z,17.98
2023-04-23T17:33:48.412Z,17.98
2023-04-23T17:36:15.066Z,17.93
2023-04-23T17:38:41.650Z,17.88
2023-04-23T17:41:08.264Z,17.81
2023-04-23T17:43:34.926Z,17.70
2023-04-23T17:46:01.674Z,17.62
2023-04-23T17:48:28.389Z,17.56
2023-04-23T17:50:54.933Z,17.41
2023-04-23T17:53:21.470Z,17.38
2023-04-23T17:55:48.001Z,17.36
2023-04-23T17:58:14.503Z,17.21
2023-04-23T18:00:42.127Z,17.08
2023-04-23T18:03:09.441Z,17.02
2023-04-23T18:05:36.348Z,16.84
2023-04-23T18:08:03.106Z,16.77
2023-04-23T18:10:29.832Z,16.78
2023-04-23T18:12:56.476Z,16.68
2023-04-23T18:15:23.698Z,16.59
2023-04-23T18:17:50.334Z,16.51
2023-04-23T18:20:16.990Z,16.41
2023-04-23T18:22:43.548Z,16.41
2023-04-23T18:25:10.177Z,16.34
2023-04-23T18:27:36.694Z,16.27
2023-04-23T18:30:03.578Z,16.23
2023-04-23T18:32:35.158Z,16.23
2023-04-23T18:35:02.841Z,16.21
2023-04-23T18:37:47.557Z,16.24
2023-04-23T18:40:14.249Z,16.19
2023-04-23T18:42:40.754Z,16.15
2023-04-23T18:45:07.735Z,16.13
2023-04-23T18:47:51.029Z,16.06
2023-04-23T18:50:31.070Z,16.05
2023-04-23T18:52:57.623Z,16.08
2023-04-23T18:55:24.095Z,16.10
2023-04-23T18:57:50.614Z,16.07
2023-04-23T19:00:17.232Z,16.09
2023-04-23T19:02:43.888Z,16.08
2023-04-23T19:05:11.259Z,16.03
2023-04-23T19:07:37.894Z,16.03
2023-04-23T19:10:04.652Z,15.98
2023-04-23T19:12:31.171Z,15.98
2023-04-23T19:14:57.631Z,15.98
2023-04-23T19:17:24.270Z,15.91
2023-04-23T19:19:50.869Z,15.91
2023-04-23T19:22:17.426Z,15.86
2023-04-23T19:24:43.893Z,15.82
2023-04-23T19:27:10.442Z,15.80
2023-04-23T19:29:36.918Z,15.74
2023-04-23T19:32:03.419Z,15.80
2023-04-23T19:34:29.959Z,15.86
2023-04-23T19:36:56.446Z,15.78
2023-04-23T19:39:22.901Z,15.75
2023-04-23T19:41:49.607Z,15.75
2023-04-23T19:44:16.158Z,15.74
2023-04-23T19:46:42.665Z,15.69
2023-04-23T19:49:09.193Z,15.61
2023-04-23T19:51:36.564Z,15.55
2023-04-23T19:54:03.104Z,15.47
2023-04-23T19:56:29.664Z,15.37
2023-04-23T19:58:56.266Z,15.30
2023-04-23T20:01:22.841Z,15.21
2023-04-23T20:03:49.463Z,15.12
2023-04-23T20:06:16.462Z,14.90
2023-04-23T20:08:42.966Z,14.81
2023-04-23T20:11:09.916Z,14.67
2023-04-23T20:13:36.472Z,14.48
2023-04-23T20:16:03.084Z,14.43
2023-04-23T20:18:29.636Z,14.36
2023-04-23T20:20:56.133Z,14.32
2023-04-23T20:23:22.646Z,14.25
2023-04-23T20:25:49.304Z,14.13
2023-04-23T20:28:15.837Z,14.05
2023-04-23T20:30:42.427Z,14.02
2023-04-23T20:33:09.318Z,14.02
2023-04-23T20:35:35.884Z,13.99
2023-04-23T20:38:02.457Z,13.92
2023-04-23T20:40:29.948Z,13.95
2023-04-23T20:42:56.427Z,13.87
2023-04-23T20:45:22.910Z,13.88
2023-04-23T20:47:49.442Z,13.86
2023-04-23T20:50:16.146Z,13.77
2023-04-23T20:52:42.852Z,13.68
2023-04-23T20:55:09.696Z,13.68
2023-04-23T20:57:36.357Z,13.62
2023-04-23T21:00:03.752Z,13.65
2023-04-23T21:02:30.364Z,13.60
2023-04-23T21:04:56.956Z,13.63
2023-04-23T21:07:23.447Z,13.60
2023-04-23T21:09:49.983Z,13.50
2023-04-23T21:12:16.519Z,13.47
2023-04-23T21:14:43.212Z,13.40
2023-04-23T21:17:09.702Z,13.31
2023-04-23T21:19:36.192Z,13.21
2023-04-23T21:22:02.643Z,13.16
2023-04-23T21:24:29.140Z,13.11
2023-04-23T21:26:55.679Z,13.11
2023-04-23T21:29:22.178Z,13.08
2023-04-23T21:31:51.876Z,13.03
2023-04-23T21:34:18.527Z,13.02
2023-04-23T21:36:45.640Z,12.97
2023-04-23T21:39:13.230Z,12.90
2023-04-23T21:41:40.074Z,12.86
2023-04-23T21:44:06.706Z,12.81
2023-04-23T21:46:33.437Z,12.82
2023-04-23T21:49:00.044Z,12.80
2023-04-23T21:51:26.588Z,12.82
2023-04-23T21:53:53.147Z,12.85
2023-04-23T21:56:20.098Z,12.87
2023-04-23T21:58:46.588Z,12.85
2023-04-23T22:01:13.186Z,12.85
2023-04-23T22:03:40.104Z,12.82
2023-04-23T22:06:06.986Z,12.84
2023-04-23T22:08:33.838Z,12.82
2023-04-23T22:11:00.339Z,12.78
2023-04-23T22:13:26.870Z,12.80
2023-04-23T22:15:53.417Z,12.72
2023-04-23T22:18:19.908Z,12.68
2023-04-23T22:20:46.462Z,12.63
2023-04-23T22:23:12.997Z,12.58
2023-04-23T22:25:39.487Z,12.52
2023-04-23T22:28:06.497Z,12.49
2023-04-23T22:30:33.170Z,12.44
2023-04-23T22:32:59.754Z,12.40
2023-04-23T22:35:26.432Z,12.40
2023-04-23T22:37:53.409Z,12.34
2023-04-23T22:40:19.985Z,12.30
2023-04-23T22:42:46.532Z,12.27
2023-04-23T22:45:13.080Z,12.20
2023-04-23T22:47:39.673Z,12.21
2023-04-23T22:50:06.685Z,12.28
2023-04-23T22:52:33.193Z,12.38
2023-04-23T22:54:59.648Z,12.39
2023-04-23T22:57:26.363Z,12.43
2023-04-23T22:59:52.881Z,12.43
2023-04-23T23:02:19.562Z,12.42
2023-04-23T23:04:46.182Z,12.46
2023-04-23T23:07:12.723Z,12.49
2023-04-23T23:09:39.217Z,12.55
2023-04-23T23:12:05.751Z,12.59
2023-04-23T23:14:32.445Z,12.59
2023-04-23T23:16:59.223Z,12.57
2023-04-23T23:19:25.872Z,12.54
2023-04-23T23:21:52.469Z,12.51
2023-04-23T23:24:19.138Z,12.48
2023-04-23T23:26:45.709Z,12.50
2023-04-23T23:29:12.283Z,12.50
2023-04-23T23:31:38.866Z,12.43
2023-04-23T23:34:05.631Z,12.35
2023-04-23T23:36:32.499Z,12.28
2023-04-23T23:38:59.105Z,12.05
2023-04-23T23:41:25.659Z,11.81
2023-04-23T23:43:52.899Z,11.61
2023-04-23T23:46:19.855Z,11.52
2023-04-23T23:48:46.937Z,11.52
2023-04-23T23:51:14.272Z,11.50
2023-04-23T23:53:40.749Z,11.60
2023-04-23T23:56:07.273Z,11.70
2023-04-23T23:58:33.754Z,11.79
